Time;durP1;ratioP1;P1;durP2;ratioP2;P2;SDS_P1;SDS_P2;PMS_P1;PMS_P2;Temp;Humidity;BMP_temperature;BMP_pressure;BME280_temperature;BME280_humidity;BME280_pressure;Samples;Min_cycle;Max_cycle;Signal;HPM_P1;HPM_P2
2023/09/13 00:00:31;;;;;;;;;;;;;;;24.58;57.13;100618.13;4171626;28;20024;-65
2023/09/13 00:02:34;;;;;;;;;;;;;;;24.58;57.09;100615.38;4170204;28;20051;-66
2023/09/13 00:04:36;;;;;;;;;;;;;;;24.57;57.14;100610.13;4172111;28;20031;-66
2023/09/13 00:06:37;;;;;;;;;;;;;;;24.57;57.28;100610.13;4170954;28;20027;-68
2023/09/13 00:08:39;;;;;;;;;;;;;;;24.57;56.97;100607.34;4171977;28;20453;-66
2023/09/13 00:10:44;;;;;;;;;;;;;;;24.56;57.27;100619.44;4170575;28;20019;-66
2023/09/13 00:12:46;;;;;;;;;;;;;;;24.55;57.48;100612.28;4168374;28;20019;-67
2023/09/13 00:14:48;;;;;;;;;;;;;;;24.52;57.23;100604.56;4171646;28;20027;-66
2023/09/13 00:16:50;;;;;;;;;;;;;;;24.52;57.32;100608.13;4171461;28;20543;-66
2023/09/13 00:18:52;;;;;;;;;;;;;;;24.52;57.35;100615.59;4172012;28;19959;-66
2023/09/13 00:20:54;;;;;;;;;;;;;;;24.49;57.70;100614.22;4171016;28;20011;-66
2023/09/13 00:22:55;;;;;;;;;;;;;;;24.49;57.77;100622.50;4169874;28;20017;-66
2023/09/13 00:24:57;;;;;;;;;;;;;;;24.47;57.89;100608.13;4170014;28;19925;-66
2023/09/13 00:26:59;;;;;;;;;;;;;;;24.47;57.94;100614.47;4170488;28;20054;-66
2023/09/13 00:29:01;;;;;;;;;;;;;;;24.46;57.57;100606.47;4170809;28;20346;-66
2023/09/13 00:31:03;;;;;;;;;;;;;;;24.46;58.02;100610.06;4184012;28;20016;-66
2023/09/13 00:33:05;;;;;;;;;;;;;;;24.47;57.69;100600.69;4169436;28;20019;-66
2023/09/13 00:35:06;;;;;;;;;;;;;;;24.47;57.81;100605.38;4169188;28;20016;-66
2023/09/13 00:37:08;;;;;;;;;;;;;;;24.46;58.17;100600.94;4171050;28;20028;-66
2023/09/13 00:39:10;;;;;;;;;;;;;;;24.45;57.82;100604.81;4170526;28;19925;-67
2023/09/13 00:41:12;;;;;;;;;;;;;;;24.44;57.89;100598.47;4170494;28;20011;-66
2023/09/13 00:43:16;;;;;;;;;;;;;;;24.43;57.94;100591.28;4186141;28;20008;-65
2023/09/13 00:45:18;;;;;;;;;;;;;;;24.43;58.08;100601.50;4186009;28;20011;-66
2023/09/13 00:47:20;;;;;;;;;;;;;;;24.42;57.85;100599.81;4170448;28;20430;-66
2023/09/13 00:49:22;;;;;;;;;;;;;;;24.42;58.29;100619.16;4172400;28;20032;-67
2023/09/13 00:51:24;;;;;;;;;;;;;;;24.41;58.25;100621.09;4170855;28;20027;-66
2023/09/13 00:53:26;;;;;;;;;;;;;;;24.40;58.05;100619.41;4171047;28;20015;-65
2023/09/13 00:55:28;;;;;;;;;;;;;;;24.38;58.35;100618.88;4171090;28;20369;-65
2023/09/13 00:57:29;;;;;;;;;;;;;;;24.38;58.35;100612.53;4171135;28;20023;-66
2023/09/13 00:59:32;;;;;;;;;;;;;;;24.37;58.16;100611.69;4170873;28;19929;-66
2023/09/13 01:01:34;;;;;;;;;;;;;;;24.36;58.08;100607.28;4184282;28;20023;-66
2023/09/13 01:03:36;;;;;;;;;;;;;;;24.38;58.12;100609.78;4186401;28;20506;-66
2023/09/13 01:05:37;;;;;;;;;;;;;;;24.37;58.23;100608.94;4170463;28;20027;-66
2023/09/13 01:07:40;;;;;;;;;;;;;;;24.36;58.42;100599.00;4185958;28;20024;-66
2023/09/13 01:09:41;;;;;;;;;;;;;;;24.36;58.59;100606.47;4170400;28;20012;-65
2023/09/13 01:11:44;;;;;;;;;;;;;;;24.34;58.21;100598.47;4184768;28;19936;-66
2023/09/13 01:13:46;;;;;;;;;;;;;;;24.35;58.25;100604.81;4170684;28;20016;-66
2023/09/13 01:15:52;;;;;;;;;;;;;;;24.33;58.15;100602.31;4171667;28;20027;-67
2023/09/13 01:17:55;;;;;;;;;;;;;;;24.32;58.44;100592.38;4169195;28;20020;-65
2023/09/13 01:19:59;;;;;;;;;;;;;;;24.32;58.37;100594.31;4169400;28;20658;-66
2023/09/13 01:22:04;;;;;;;;;;;;;;;24.31;58.52;100600.91;4169576;28;20015;-66
2023/09/13 01:24:24;;;;;;;;;;;;;;;24.29;58.43;100588.25;4169799;28;20020;-67
2023/09/13 01:26:33;;;;;;;;;;;;;;;24.30;58.12;100580.78;4169655;28;20040;-65
2023/09/13 01:28:37;;;;;;;;;;;;;;;24.29;58.27;100566.16;4171360;28;20460;-66
2023/09/13 01:30:39;;;;;;;;;;;;;;;24.30;58.42;100553.19;4170547;28;20442;-66
2023/09/13 01:32:43;;;;;;;;;;;;;;;24.28;57.91;100550.69;4170373;28;20342;-67
2023/09/13 01:34:45;;;;;;;;;;;;;;;24.28;58.12;100538.84;4171029;28;20011;-65
2023/09/13 01:36:47;;;;;;;;;;;;;;;24.27;57.99;100529.72;4171139;28;20012;-67
2023/09/13 01:38:49;;;;;;;;;;;;;;;24.26;58.15;100518.94;4170457;28;20028;-67
2023/09/13 01:40:51;;;;;;;;;;;;;;;24.25;58.03;100528.34;4184905;28;20024;-67
2023/09/13 01:42:54;;;;;;;;;;;;;;;24.24;58.10;100534.97;4170018;28;20016;-66
2023/09/13 01:44:57;;;;;;;;;;;;;;;24.22;58.12;100540.75;4171926;28;20037;-66
2023/09/13 01:46:59;;;;;;;;;;;;;;;24.22;57.89;100545.44;4172524;28;20028;-66
2023/09/13 01:49:01;;;;;;;;;;;;;;;24.20;58.09;100545.72;4173776;28;20020;-67
2023/09/13 01:51:03;;;;;;;;;;;;;;;24.18;57.95;100561.69;4178341;28;20023;-66
2023/09/13 01:53:05;;;;;;;;;;;;;;;24.17;57.98;100626.28;4188308;28;20028;-67
2023/09/13 01:55:08;;;;;;;;;;;;;;;24.10;58.04;100846.41;4172902;28;20016;-67
2023/09/13 01:57:10;;;;;;;;;;;;;;;23.94;58.92;100812.38;4179734;28;20366;-67
2023/09/13 01:59:12;;;;;;;;;;;;;;;23.78;59.39;100824.31;4179542;28;20409;-66
2023/09/13 02:01:16;;;;;;;;;;;;;;;23.66;59.65;100800.53;4184224;28;19929;-66
2023/09/13 02:03:18;;;;;;;;;;;;;;;23.57;59.73;100818.66;4174136;28;20371;-66
2023/09/13 02:05:20;;;;;;;;;;;;;;;23.52;59.98;100846.19;4174036;28;21611;-68
2023/09/13 02:07:22;;;;;;;;;;;;;;;23.44;63.86;100833.69;4173732;28;20019;-67
2023/09/13 02:09:24;;;;;;;;;;;;;;;23.36;68.06;100829.47;4172520;28;20012;-68
2023/09/13 02:11:26;;;;;;;;;;;;;;;23.25;71.99;100818.63;4179091;28;20029;-67
2023/09/13 02:13:28;;;;;;;;;;;;;;;23.14;72.62;100779.13;4179516;28;20487;-67
2023/09/13 02:15:31;;;;;;;;;;;;;;;23.06;72.93;100743.72;4173178;28;20015;-67
2023/09/13 02:17:33;;;;;;;;;;;;;;;23.00;72.50;100710.66;4173540;28;20015;-67
2023/09/13 02:19:35;;;;;;;;;;;;;;;23.00;73.22;100677.59;4184724;28;20027;-67
2023/09/13 02:21:37;;;;;;;;;;;;;;;23.02;74.07;100661.66;4169732;28;20502;-66
2023/09/13 02:23:41;;;;;;;;;;;;;;;23.02;74.45;100680.94;4173577;28;20418;-67
2023/09/13 02:25:44;;;;;;;;;;;;;;;23.02;75.42;100691.94;4172924;28;20056;-66
2023/09/13 02:27:46;;;;;;;;;;;;;;;23.01;75.73;100704.06;4173193;28;20054;-68
2023/09/13 02:29:48;;;;;;;;;;;;;;;22.99;75.41;100724.66;4172309;28;20040;-67
2023/09/13 02:31:50;;;;;;;;;;;;;;;22.96;74.68;100709.53;4187887;28;20027;-68
2023/09/13 02:33:54;;;;;;;;;;;;;;;22.91;74.52;100701.19;4173369;28;20019;-69
2023/09/13 02:35:56;;;;;;;;;;;;;;;22.89;75.38;100684.09;4171750;28;20016;-67
2023/09/13 02:37:58;;;;;;;;;;;;;;;22.88;75.55;100676.09;4178430;28;20023;-68
2023/09/13 02:40:00;;;;;;;;;;;;;;;22.87;75.71;100667.03;4172094;28;20039;-67
2023/09/13 02:42:02;;;;;;;;;;;;;;;22.88;76.08;100646.63;4170639;28;20520;-67
2023/09/13 02:44:04;;;;;;;;;;;;;;;22.89;76.27;100623.53;4173465;28;20021;-67
2023/09/13 02:46:07;;;;;;;;;;;;;;;22.89;76.66;100607.00;4173591;28;20019;-68
2023/09/13 02:48:09;;;;;;;;;;;;;;;22.88;76.95;100585.22;4173922;28;20020;-69
2023/09/13 02:50:12;;;;;;;;;;;;;;;22.87;76.97;100576.16;4172193;28;20027;-68
2023/09/13 02:52:13;;;;;;;;;;;;;;;22.87;76.97;100567.91;4172350;28;20032;-67
2023/09/13 02:54:15;;;;;;;;;;;;;;;22.87;76.29;100565.13;4173278;28;19972;-68
2023/09/13 02:56:17;;;;;;;;;;;;;;;22.86;76.23;100549.69;4188007;28;20031;-67
2023/09/13 02:58:19;;;;;;;;;;;;;;;22.85;76.21;100542.53;4172447;28;20028;-67
2023/09/13 03:00:21;;;;;;;;;;;;;;;22.84;76.05;100529.88;4173002;28;20024;-67
2023/09/13 03:02:22;;;;;;;;;;;;;;;22.84;76.84;100541.72;4169470;28;20291;-67
2023/09/13 03:04:25;;;;;;;;;;;;;;;22.83;77.02;100537.28;4179017;28;20446;-67
2023/09/13 03:06:29;;;;;;;;;;;;;;;22.82;76.61;100532.88;4178327;28;20043;-69
2023/09/13 03:08:31;;;;;;;;;;;;;;;22.82;76.65;100523.78;4171936;28;20015;-68
2023/09/13 03:10:35;;;;;;;;;;;;;;;22.82;76.72;100521.88;4172439;28;20019;-67
2023/09/13 03:12:37;;;;;;;;;;;;;;;22.81;76.61;100511.94;4178779;28;20015;-69
2023/09/13 03:14:39;;;;;;;;;;;;;;;22.80;76.97;100507.53;4185855;28;20027;-67
2023/09/13 03:16:41;;;;;;;;;;;;;;;22.80;76.41;100512.22;4177875;28;20368;-67
2023/09/13 03:18:46;;;;;;;;;;;;;;;22.79;76.91;100510.53;4172438;28;20048;-67
2023/09/13 03:20:51;;;;;;;;;;;;;;;22.78;76.67;100517.97;4171367;28;20023;-67
2023/09/13 03:22:56;;;;;;;;;;;;;;;22.78;76.34;100517.16;4176566;28;20414;-66
2023/09/13 03:24:58;;;;;;;;;;;;;;;22.76;76.67;100511.91;4178726;28;20707;-67
2023/09/13 03:27:00;;;;;;;;;;;;;;;22.76;76.78;100511.91;4172918;28;20482;-67
2023/09/13 03:29:03;;;;;;;;;;;;;;;22.75;76.64;100509.44;4187083;28;20027;-68
2023/09/13 03:31:07;;;;;;;;;;;;;;;22.73;76.28;100517.94;4171378;28;20359;-67
2023/09/13 03:33:09;;;;;;;;;;;;;;;22.71;76.88;100509.13;4172718;28;20373;-68
2023/09/13 03:35:12;;;;;;;;;;;;;;;22.71;77.05;100506.38;4187066;28;20046;-68
2023/09/13 03:37:14;;;;;;;;;;;;;;;22.70;76.94;100512.97;4187278;28;20055;-69
2023/09/13 03:39:17;;;;;;;;;;;;;;;22.70;77.34;100515.72;4170285;28;20028;-67
2023/09/13 03:41:19;;;;;;;;;;;;;;;22.68;77.13;100513.22;4171519;28;20007;-67
2023/09/13 03:43:20;;;;;;;;;;;;;;;22.68;77.17;100513.22;4172103;28;20091;-66
2023/09/13 03:45:22;;;;;;;;;;;;;;;22.67;77.32;100513.50;4186953;28;20049;-67
2023/09/13 03:47:25;;;;;;;;;;;;;;;22.65;77.38;100505.50;4186422;28;20032;-68
2023/09/13 03:49:28;;;;;;;;;;;;;;;22.65;76.82;100500.00;4186296;28;20072;-67
2023/09/13 03:51:30;;;;;;;;;;;;;;;22.64;76.93;100501.09;4186492;28;20015;-67
2023/09/13 03:53:31;;;;;;;;;;;;;;;22.63;76.86;100493.94;4172619;28;20853;-67
2023/09/13 03:55:35;;;;;;;;;;;;;;;22.62;76.97;100492.25;4170927;28;20013;-66
2023/09/13 03:57:38;;;;;;;;;;;;;;;22.61;77.47;100487.84;4170497;28;20024;-67
2023/09/13 03:59:40;;;;;;;;;;;;;;;22.60;77.64;100485.34;4187000;28;20019;-67
2023/09/13 04:01:42;;;;;;;;;;;;;;;22.59;77.70;100484.53;4171776;28;20028;-67
2023/09/13 04:03:44;;;;;;;;;;;;;;;22.58;77.49;100482.03;4172426;28;19951;-67
2023/09/13 04:05:46;;;;;;;;;;;;;;;22.57;77.67;100489.47;4172431;28;20386;-67
2023/09/13 04:07:48;;;;;;;;;;;;;;;22.56;77.52;100490.56;4177319;28;19964;-67
2023/09/13 04:09:50;;;;;;;;;;;;;;;22.56;77.70;100498.81;4170057;28;20024;-67
2023/09/13 04:11:57;;;;;;;;;;;;;;;22.56;77.37;100498.81;4176559;28;20015;-66
2023/09/13 04:14:00;;;;;;;;;;;;;;;22.54;77.34;100491.91;4184304;28;20031;-67
2023/09/13 04:16:02;;;;;;;;;;;;;;;22.54;77.26;100475.41;4186475;28;20843;-66
2023/09/13 04:18:08;;;;;;;;;;;;;;;22.52;77.97;100467.41;4169801;28;20023;-67
2023/09/13 04:20:10;;;;;;;;;;;;;;;22.52;77.81;100466.59;4185046;28;20363;-69
2023/09/13 04:22:16;;;;;;;;;;;;;;;22.50;77.70;100467.66;4170234;28;19936;-67
2023/09/13 04:24:19;;;;;;;;;;;;;;;22.50;77.47;100466.84;4186351;28;19929;-66
2023/09/13 04:26:23;;;;;;;;;;;;;;;22.50;77.51;100480.59;4171499;28;20019;-67
2023/09/13 04:28:26;;;;;;;;;;;;;;;22.50;77.22;100483.38;4171269;28;20389;-66
2023/09/13 04:30:27;;;;;;;;;;;;;;;22.46;76.85;100479.47;4171358;28;20027;-66
2023/09/13 04:32:29;;;;;;;;;;;;;;;22.45;76.93;100488.84;4169974;28;20040;-67
2023/09/13 04:34:36;;;;;;;;;;;;;;;22.41;76.47;100491.25;4176955;28;20027;-66
2023/09/13 04:36:38;;;;;;;;;;;;;;;22.40;76.90;100497.88;4170846;28;20041;-67
2023/09/13 04:38:40;;;;;;;;;;;;;;;22.36;76.67;100496.72;4186288;28;20023;-65
2023/09/13 04:40:43;;;;;;;;;;;;;;;22.34;76.84;100504.41;4169427;28;20023;-66
2023/09/13 04:42:51;;;;;;;;;;;;;;;22.32;76.73;100506.63;4170964;28;20016;-65
2023/09/13 04:44:54;;;;;;;;;;;;;;;22.30;76.51;100506.03;4185502;28;20466;-66
2023/09/13 04:46:57;;;;;;;;;;;;;;;22.27;76.47;100509.25;4185696;28;20016;-65
2023/09/13 04:48:59;;;;;;;;;;;;;;;22.23;76.45;100511.72;4169590;28;20096;-67
2023/09/13 04:51:03;;;;;;;;;;;;;;;22.21;76.83;100527.66;4170209;28;20023;-66
2023/09/13 04:53:07;;;;;;;;;;;;;;;22.20;76.63;100525.16;4168987;28;20028;-66
2023/09/13 04:55:09;;;;;;;;;;;;;;;22.17;76.54;100534.75;4169743;28;20047;-66
2023/09/13 04:57:12;;;;;;;;;;;;;;;22.14;76.27;100529.78;4186828;28;20026;-66
2023/09/13 04:59:14;;;;;;;;;;;;;;;22.12;76.07;100535.53;4176885;28;20020;-66
2023/09/13 05:01:17;;;;;;;;;;;;;;;22.09;75.68;100538.81;4175706;28;20019;-66
2023/09/13 05:03:19;;;;;;;;;;;;;;;22.08;75.89;100536.31;4186203;28;20035;-66
2023/09/13 05:05:21;;;;;;;;;;;;;;;22.04;76.12;100535.19;4171259;28;19966;-67
2023/09/13 05:07:23;;;;;;;;;;;;;;;22.00;76.04;100550.53;4170776;28;20011;-66
2023/09/13 05:09:25;;;;;;;;;;;;;;;21.95;75.92;100552.13;4171631;28;20016;-67
2023/09/13 05:11:27;;;;;;;;;;;;;;;21.92;76.26;100551.81;4171018;28;20071;-67
2023/09/13 05:13:29;;;;;;;;;;;;;;;21.90;76.21;100549.31;4170945;28;20470;-68
2023/09/13 05:15:31;;;;;;;;;;;;;;;21.86;76.41;100556.41;4171220;28;20011;-68
2023/09/13 05:17:34;;;;;;;;;;;;;;;21.84;76.31;100558.59;4171878;28;20027;-68
2023/09/13 05:19:36;;;;;;;;;;;;;;;21.80;76.69;100556.59;4174142;28;20368;-65
2023/09/13 05:21:38;;;;;;;;;;;;;;;21.75;76.71;100560.13;4174424;28;20008;-67
2023/09/13 05:23:40;;;;;;;;;;;;;;;21.71;76.76;100559.00;4174985;28;20027;-67
2023/09/13 05:25:45;;;;;;;;;;;;;;;21.68;76.48;100565.00;4175096;28;19940;-66
2023/09/13 05:27:46;;;;;;;;;;;;;;;21.65;76.86;100557.28;4174549;28;20023;-66
2023/09/13 05:29:48;;;;;;;;;;;;;;;21.62;76.63;100561.34;4173382;28;20506;-66
2023/09/13 05:31:50;;;;;;;;;;;;;;;21.57;76.80;100555.78;4172079;28;20004;-66
2023/09/13 05:33:54;;;;;;;;;;;;;;;21.53;76.98;100555.44;4174645;28;20023;-66
2023/09/13 05:35:56;;;;;;;;;;;;;;;21.51;77.37;100551.31;4173996;28;20023;-66
2023/09/13 05:37:58;;;;;;;;;;;;;;;21.49;77.08;100557.06;4174225;28;20025;-66
2023/09/13 05:40:03;;;;;;;;;;;;;;;21.45;77.27;100563.28;4173826;28;20019;-65
2023/09/13 05:42:05;;;;;;;;;;;;;;;21.42;77.64;100568.19;4180087;28;20028;-65
2023/09/13 05:44:08;;;;;;;;;;;;;;;21.42;77.74;100559.13;4174448;28;20015;-66
2023/09/13 05:46:10;;;;;;;;;;;;;;;21.39;77.57;100557.72;4174127;28;19945;-67
2023/09/13 05:48:12;;;;;;;;;;;;;;;21.38;77.70;100567.03;4174090;28;20019;-67
2023/09/13 05:50:16;;;;;;;;;;;;;;;21.36;77.88;100565.63;4172450;28;20028;-69
2023/09/13 05:52:17;;;;;;;;;;;;;;;21.33;78.07;100569.72;4173445;28;20015;-66
2023/09/13 05:54:19;;;;;;;;;;;;;;;21.30;78.09;100569.38;4173957;28;19980;-65
2023/09/13 05:56:19;;;;;;;;;;;;;;;21.27;78.08;100567.13;4173952;28;20347;-66
2023/09/13 05:58:21;;;;;;;;;;;;;;;21.23;78.08;100569.56;4173905;28;20371;-66
2023/09/13 06:00:23;;;;;;;;;;;;;;;21.21;78.33;100564.31;4173939;28;20365;-66
2023/09/13 06:02:25;;;;;;;;;;;;;;;21.20;78.41;100565.41;4173928;28;20046;-66
2023/09/13 06:04:30;;;;;;;;;;;;;;;21.18;78.35;100564.00;4179320;28;20573;-67
2023/09/13 06:06:33;;;;;;;;;;;;;;;21.16;78.54;100564.25;4173907;28;19929;-67
2023/09/13 06:08:35;;;;;;;;;;;;;;;21.14;78.55;100566.41;4172396;28;20343;-68
2023/09/13 06:10:37;;;;;;;;;;;;;;;21.11;78.57;100558.66;4171823;28;20025;-67
2023/09/13 06:12:38;;;;;;;;;;;;;;;21.10;78.66;100559.78;4172943;28;20059;-67
2023/09/13 06:14:41;;;;;;;;;;;;;;;21.09;78.84;100560.84;4173951;28;19935;-66
2023/09/13 06:16:43;;;;;;;;;;;;;;;21.06;79.02;100555.84;4173751;28;20023;-67
2023/09/13 06:18:45;;;;;;;;;;;;;;;21.04;79.39;100569.84;4188132;28;20450;-67
2023/09/13 06:20:47;;;;;;;;;;;;;;;21.02;79.47;100566.53;4171795;28;20023;-68
2023/09/13 06:22:50;;;;;;;;;;;;;;;21.02;79.60;100560.22;4171088;28;20007;-69
2023/09/13 06:24:52;;;;;;;;;;;;;;;21.02;79.68;100563.78;4171499;28;20232;-67
2023/09/13 06:26:55;;;;;;;;;;;;;;;21.01;80.14;100564.84;4171927;28;19925;-67
2023/09/13 06:28:57;;;;;;;;;;;;;;;21.01;79.97;100570.34;4172570;28;20376;-66
2023/09/13 06:31:00;;;;;;;;;;;;;;;21.03;80.00;100559.97;4169366;28;20442;-66
2023/09/13 06:33:03;;;;;;;;;;;;;;;21.03;80.35;100572.84;4169128;28;20043;-67
2023/09/13 06:35:06;;;;;;;;;;;;;;;21.01;80.49;100572.25;4171196;28;20404;-67
2023/09/13 06:37:08;;;;;;;;;;;;;;;21.00;81.12;100574.19;4172947;28;20047;-68
2023/09/13 06:39:11;;;;;;;;;;;;;;;21.00;81.12;100573.34;4172952;28;20027;-67
2023/09/13 06:41:13;;;;;;;;;;;;;;;21.02;81.41;100574.75;4173033;28;20028;-66
2023/09/13 06:43:16;;;;;;;;;;;;;;;21.04;81.72;100560.78;4173053;28;20020;-67
2023/09/13 06:45:18;;;;;;;;;;;;;;;21.06;81.49;100569.59;4172168;28;20015;-68
2023/09/13 06:47:20;;;;;;;;;;;;;;;21.10;81.55;100567.16;4172483;28;20032;-68
2023/09/13 06:49:23;;;;;;;;;;;;;;;21.10;82.14;100570.75;4171723;28;20379;-66
2023/09/13 06:51:25;;;;;;;;;;;;;;;21.09;82.01;100584.75;4173021;28;20028;-66
2023/09/13 06:53:27;;;;;;;;;;;;;;;21.10;82.66;100580.88;4171591;28;20015;-66
2023/09/13 06:55:32;;;;;;;;;;;;;;;21.12;82.49;100576.81;4172955;28;20023;-67
2023/09/13 06:57:34;;;;;;;;;;;;;;;21.14;82.50;100593.88;4173637;28;20144;-69
2023/09/13 06:59:36;;;;;;;;;;;;;;;21.12;82.08;100589.72;4173479;28;20024;-67
2023/09/13 07:01:38;;;;;;;;;;;;;;;21.13;82.40;100594.97;4172855;28;20028;-66
2023/09/13 07:03:39;;;;;;;;;;;;;;;21.13;82.39;100600.47;4172333;28;20035;-66
2023/09/13 07:05:42;;;;;;;;;;;;;;;21.15;82.19;100598.28;4173061;28;19929;-66
2023/09/13 07:07:43;;;;;;;;;;;;;;;21.17;82.36;100596.13;4172406;28;20020;-68
2023/09/13 07:09:45;;;;;;;;;;;;;;;21.21;82.19;100599.22;4171838;28;19925;-68
2023/09/13 07:11:48;;;;;;;;;;;;;;;21.22;82.28;100601.69;4173037;28;20045;-68
2023/09/13 07:13:50;;;;;;;;;;;;;;;21.23;82.40;100606.09;4172650;28;20378;-67
2023/09/13 07:15:53;;;;;;;;;;;;;;;21.27;82.11;100594.59;4172900;28;20019;-66
2023/09/13 07:17:54;;;;;;;;;;;;;;;21.30;81.69;100599.59;4173630;28;20023;-67
2023/09/13 07:19:56;;;;;;;;;;;;;;;21.33;81.63;100601.84;4172653;28;20021;-67
2023/09/13 07:21:59;;;;;;;;;;;;;;;21.36;81.21;100609.56;4172218;28;20024;-65
2023/09/13 07:24:01;;;;;;;;;;;;;;;21.40;81.38;100605.25;4172766;28;20011;-65
2023/09/13 07:26:03;;;;;;;;;;;;;;;21.41;81.05;100607.75;4172343;28;20601;-65
2023/09/13 07:28:07;;;;;;;;;;;;;;;21.44;81.00;100609.13;4172830;28;20395;-67
2023/09/13 07:30:10;;;;;;;;;;;;;;;21.45;80.69;100620.97;4172435;28;20025;-67
2023/09/13 07:32:11;;;;;;;;;;;;;;;21.44;80.32;100620.13;4172294;28;20019;-67
2023/09/13 07:34:15;;;;;;;;;;;;;;;21.45;79.89;100623.72;4172090;28;20370;-66
2023/09/13 07:36:17;;;;;;;;;;;;;;;21.46;79.63;100622.63;4172207;28;20108;-66
2023/09/13 07:38:19;;;;;;;;;;;;;;;21.49;79.83;100622.16;4171971;28;20365;-66
2023/09/13 07:40:21;;;;;;;;;;;;;;;21.50;79.63;100619.16;4171041;28;20031;-66
2023/09/13 07:42:23;;;;;;;;;;;;;;;21.52;79.48;100621.66;4171714;28;20403;-66
2023/09/13 07:44:27;;;;;;;;;;;;;;;21.54;79.75;100625.00;4171134;28;20519;-66
2023/09/13 07:46:29;;;;;;;;;;;;;;;21.53;79.67;100626.88;4171865;28;20435;-67
2023/09/13 07:48:31;;;;;;;;;;;;;;;21.55;79.56;100632.97;4172252;28;19925;-66
2023/09/13 07:50:34;;;;;;;;;;;;;;;21.57;79.33;100635.47;4172151;28;20018;-67
2023/09/13 07:52:36;;;;;;;;;;;;;;;21.59;79.10;100628.63;4172117;28;20478;-67
2023/09/13 07:54:38;;;;;;;;;;;;;;;21.60;79.00;100632.22;4172060;28;20027;-67
2023/09/13 07:56:40;;;;;;;;;;;;;;;21.62;79.44;100637.47;4172335;28;19971;-68
2023/09/13 07:58:42;;;;;;;;;;;;;;;21.64;79.42;100649.03;4172796;28;20466;-67
2023/09/13 08:00:46;;;;;;;;;;;;;;;21.65;79.36;100640.53;4172261;28;20094;-66
2023/09/13 08:02:48;;;;;;;;;;;;;;;21.68;78.94;100650.19;4171618;28;20023;-67
2023/09/13 08:04:50;;;;;;;;;;;;;;;21.67;78.84;100643.03;4172326;28;20024;-68
2023/09/13 08:06:51;;;;;;;;;;;;;;;21.67;78.84;100648.53;4171632;28;20025;-68
2023/09/13 08:08:53;;;;;;;;;;;;;;;21.66;79.03;100652.34;4170321;28;19968;-66
2023/09/13 08:10:56;;;;;;;;;;;;;;;21.66;79.10;100655.09;4171563;28;20028;-67
2023/09/13 08:12:57;;;;;;;;;;;;;;;21.67;78.76;100654.03;4171910;28;20027;-66
2023/09/13 08:14:59;;;;;;;;;;;;;;;21.67;78.50;100646.59;4186723;28;20412;-65
2023/09/13 08:17:02;;;;;;;;;;;;;;;21.68;78.38;100653.78;4171441;28;20016;-67
2023/09/13 08:19:05;;;;;;;;;;;;;;;21.68;77.70;100650.19;4171233;28;20385;-66
2023/09/13 08:21:07;;;;;;;;;;;;;;;21.67;77.68;100657.59;4172277;28;20023;-66
2023/09/13 08:23:09;;;;;;;;;;;;;;;21.66;77.76;100661.44;4171687;28;20027;-69
2023/09/13 08:25:11;;;;;;;;;;;;;;;21.67;78.00;100665.03;4171905;28;20019;-68
2023/09/13 08:27:13;;;;;;;;;;;;;;;21.68;77.75;100663.94;4171788;28;20367;-67
2023/09/13 08:29:15;;;;;;;;;;;;;;;21.69;77.83;100671.94;4171401;28;19975;-67
2023/09/13 08:31:17;;;;;;;;;;;;;;;21.71;77.09;100672.50;4172145;28;20459;-67
2023/09/13 08:33:21;;;;;;;;;;;;;;;21.72;77.30;100671.44;4187126;28;20359;-66
2023/09/13 08:35:23;;;;;;;;;;;;;;;21.72;76.84;100671.44;4170719;28;20365;-66
2023/09/13 08:37:25;;;;;;;;;;;;;;;21.76;76.61;100675.31;4170120;28;20019;-67
2023/09/13 08:39:27;;;;;;;;;;;;;;;21.79;76.86;100671.25;4171789;28;20031;-69
2023/09/13 08:41:29;;;;;;;;;;;;;;;21.84;77.07;100675.97;4170840;28;20020;-66
2023/09/13 08:43:31;;;;;;;;;;;;;;;21.88;76.03;100675.22;4171031;28;20016;-67
2023/09/13 08:45:34;;;;;;;;;;;;;;;21.93;75.57;100677.22;4170591;28;20023;-66
2023/09/13 08:47:42;;;;;;;;;;;;;;;21.99;75.03;100678.94;4171975;28;20442;-66
2023/09/13 08:49:45;;;;;;;;;;;;;;;22.03;74.31;100680.06;4169688;28;19948;-66
2023/09/13 08:51:46;;;;;;;;;;;;;;;22.07;73.57;100681.25;4170566;28;20039;-67
2023/09/13 08:53:48;;;;;;;;;;;;;;;22.12;73.35;100691.47;4170659;28;20377;-67
2023/09/13 08:55:52;;;;;;;;;;;;;;;22.16;73.01;100687.09;4170278;28;20019;-66
2023/09/13 08:57:54;;;;;;;;;;;;;;;22.18;72.84;100687.72;4170731;28;20021;-66
2023/09/13 08:59:55;;;;;;;;;;;;;;;22.21;72.86;100694.59;4170449;28;20557;-68
2023/09/13 09:01:57;;;;;;;;;;;;;;;22.23;72.40;100693.25;4171052;28;19932;-66
2023/09/13 09:04:01;;;;;;;;;;;;;;;22.27;72.21;100686.16;4171150;28;20019;-66
2023/09/13 09:06:06;;;;;;;;;;;;;;;22.30;72.51;100685.69;4170651;28;20031;-66
2023/09/13 09:08:10;;;;;;;;;;;;;;;22.34;71.83;100688.75;4171868;28;20023;-68
2023/09/13 09:10:12;;;;;;;;;;;;;;;22.38;72.02;100689.06;4170559;28;19929;-66
2023/09/13 09:12:14;;;;;;;;;;;;;;;22.41;71.54;100686.63;4170028;28;20023;-68
2023/09/13 09:14:16;;;;;;;;;;;;;;;22.44;71.57;100691.59;4170971;28;20027;-66
2023/09/13 09:16:18;;;;;;;;;;;;;;;22.47;71.26;100693.84;4170402;28;20024;-67
2023/09/13 09:18:19;;;;;;;;;;;;;;;22.48;70.91;100703.78;4171225;28;20389;-68
2023/09/13 09:20:24;;;;;;;;;;;;;;;22.48;70.60;100708.44;4170871;28;19983;-66
2023/09/13 09:22:29;;;;;;;;;;;;;;;22.48;70.66;100720.28;4170910;28;20012;-67
2023/09/13 09:24:32;;;;;;;;;;;;;;;22.49;70.34;100721.09;4171025;28;20019;-66
2023/09/13 09:26:34;;;;;;;;;;;;;;;22.47;70.35;100720.53;4169947;28;20458;-66
2023/09/13 09:28:36;;;;;;;;;;;;;;;22.46;70.55;100727.97;4171034;28;20011;-67
2023/09/13 09:30:38;;;;;;;;;;;;;;;22.45;70.23;100725.47;4169744;28;19931;-68
2023/09/13 09:32:40;;;;;;;;;;;;;;;22.44;70.67;100726.56;4171130;28;20020;-67
2023/09/13 09:34:45;;;;;;;;;;;;;;;22.42;70.52;100729.56;4170993;28;19928;-69
2023/09/13 09:36:47;;;;;;;;;;;;;;;22.40;71.02;100726.25;4170867;28;20024;-67
2023/09/13 09:38:50;;;;;;;;;;;;;;;22.40;70.76;100728.16;4171014;28;20024;-69
2023/09/13 09:40:52;;;;;;;;;;;;;;;22.38;71.10;100731.19;4170635;28;20023;-68
2023/09/13 09:42:53;;;;;;;;;;;;;;;22.38;70.98;100733.09;4170389;28;20372;-68
2023/09/13 09:44:56;;;;;;;;;;;;;;;22.35;70.87;100725.34;4170826;28;20035;-69
2023/09/13 09:46:59;;;;;;;;;;;;;;;22.31;71.04;100741.53;4169884;28;20016;-67
2023/09/13 09:49:01;;;;;;;;;;;;;;;22.28;70.76;100731.00;4170211;28;20012;-67
2023/09/13 09:51:03;;;;;;;;;;;;;;;22.25;71.14;100734.28;4170571;28;20467;-68
2023/09/13 09:53:09;;;;;;;;;;;;;;;22.24;70.87;100729.84;4170441;28;20008;-66
2023/09/13 09:55:15;;;;;;;;;;;;;;;22.23;70.87;100736.44;4170585;28;20019;-67
2023/09/13 09:57:21;;;;;;;;;;;;;;;22.21;71.02;100738.59;4169174;28;20032;-66
2023/09/13 09:59:27;;;;;;;;;;;;;;;22.19;71.39;100738.84;4169195;28;20629;-66
2023/09/13 10:01:29;;;;;;;;;;;;;;;22.17;71.00;100738.28;4170057;28;20027;-66
2023/09/13 10:03:32;;;;;;;;;;;;;;;22.17;71.19;100732.78;4170417;28;20031;-66
2023/09/13 10:05:33;;;;;;;;;;;;;;;22.17;71.18;100740.22;4170792;28;20008;-68
2023/09/13 10:07:40;;;;;;;;;;;;;;;22.18;71.18;100741.88;4173258;28;19925;-69
2023/09/13 10:09:43;;;;;;;;;;;;;;;22.17;71.09;100743.78;4174178;28;20023;-67
2023/09/13 10:11:46;;;;;;;;;;;;;;;22.18;70.98;100748.22;4173461;28;19947;-67
2023/09/13 10:13:48;;;;;;;;;;;;;;;22.20;71.20;100754.28;4173734;28;20060;-68
2023/09/13 10:15:50;;;;;;;;;;;;;;;22.22;70.95;100748.53;4173843;28;20048;-68
2023/09/13 10:17:52;;;;;;;;;;;;;;;22.24;71.02;100749.09;4173828;28;20406;-68
2023/09/13 10:19:54;;;;;;;;;;;;;;;22.25;71.09;100750.78;4172813;28;20020;-67
2023/09/13 10:21:56;;;;;;;;;;;;;;;22.24;71.38;100749.09;4172981;28;20164;-67
2023/09/13 10:24:00;;;;;;;;;;;;;;;22.26;71.33;100752.44;4173477;28;20012;-69
2023/09/13 10:26:02;;;;;;;;;;;;;;;22.26;71.33;100758.78;4172813;28;20067;-67
2023/09/13 10:28:06;;;;;;;;;;;;;;;22.26;71.83;100766.22;4173485;28;20442;-67